Zealand Delilah — PBZI — position and weather

sailwx.info

Track history (hours):
 
Tides and Currents Weather Stations Pressure Air Temp Water Temp Dewpoint Dewpoint Depression Visibility Wind Speed Wind Dir Waves Ship Positions

Zealand Delilah

Last reported at 2016-Sep-25 12:33 UTC. Time now 2016-Sep-25 14:05 UTC.
Position N 57°45' E 010°45'.

Length 134 m; draft 7.4 m.

Type: Ship. MMSI: 245935000.

Date/timePositionNaut miles runAvg speedWind from/ knotsBaromVisibWave heightAir tempDewpointWater temp
2016-Sep-25 12:33N 57°45' E 010°45'6 2.8
2016-Sep-25 10:26N 57°41' E 010°38'0 0.1
2016-Sep-25 09:21N 57°41' E 010°38'16 9.1
2016-Sep-25 07:33N 57°34' E 011°05'3210.7
2016-Sep-25 04:33N 57°07' E 011°39'4310.3
2016-Sep-25 00:23N 56°25' E 011°31'2611.4
2016-Sep-24 22:06N 56°03' E 011°06'45 9.8
2016-Sep-24 17:33N 55°18' E 011°03'9 9.1
2016-Sep-24 16:33N 55°09' E 010°60'2110.4
2016-Sep-24 14:33N 54°49' E 010°50'16 8.0
2016-Sep-24 12:33N 54°36' E 011°05'2110.4
2016-Sep-24 10:33N 54°28' E 011°38'1010.2
2016-Sep-24 09:33N 54°26' E 011°55'63 9.9
2016-Sep-24 03:11N 54°57' E 013°31'610.4
2016-Sep-24 02:33N 54°59' E 013°41'1010.3
2016-Sep-24 01:33N 55°02' E 013°58'1010.3
2016-Sep-24 00:33N 55°09' E 014°12'  
2016-Sep-18 15:34N 55°25' E 014°41'1111.3
2016-Sep-18 14:33N 55°17' E 014°28'119 9.9
2016-Sep-18 02:34N 54°34' E 011°14'1010.3
2016-Sep-18 01:34N 54°40' E 010°59'1010.0
2016-Sep-18 00:34N 54°49' E 010°52'2110.6
2016-Sep-17 22:34N 55°09' E 011°03'9710.3
2016-Sep-17 13:09N 56°42' E 011°49'710.9
2016-Sep-17 12:33N 56°48' E 011°50'2311.4
2016-Sep-17 10:32N 57°10' E 011°36'1111.3
2016-Sep-17 09:33N 57°21' E 011°30'1110.8
2016-Sep-17 08:33N 57°30' E 011°20'1111.0
2016-Sep-17 07:33N 57°37' E 011°05'27711.4
2016-Sep-16 07:12N 54°20' E 005°19'4813.1
2016-Sep-16 03:33N 53°35' E 004°50'4013.3
2016-Sep-16 00:33N 52°59' E 004°21'2412.1
2016-Sep-15 22:33N 52°39' E 003°59'1312.3
2016-Sep-15 21:28N 52°30' E 003°43'1112.0
2016-Sep-15 20:32N 52°22' E 003°30'2311.5
2016-Sep-15 18:33N 52°05' E 003°05'58 9.7
2016-Sep-15 12:33N 51°23' E 004°09'  
Track history (hours):
 
Tides and Currents Weather Stations Pressure Air Temp Water Temp Dewpoint Dewpoint Depression Visibility Wind Speed Wind Dir Waves Ship Positions

Zealand Delilah

Last reported at 2016-Sep-25 12:33 UTC. Time now 2016-Sep-25 14:05 UTC.
Position N 57°45' E 010°45'.

Length 134 m; draft 7.4 m.

Type: Ship. MMSI: 245935000.

Date/timePositionNaut miles runAvg speedWind from/ knotsBaromVisibWave heightAir tempDewpointWater temp
2016-Sep-25 12:33N 57°45' E 010°45'6 2.8
2016-Sep-25 10:26N 57°41' E 010°38'0 0.1
2016-Sep-25 09:21N 57°41' E 010°38'16 9.1
2016-Sep-25 07:33N 57°34' E 011°05'3210.7
2016-Sep-25 04:33N 57°07' E 011°39'4310.3
2016-Sep-25 00:23N 56°25' E 011°31'2611.4
2016-Sep-24 22:06N 56°03' E 011°06'45 9.8
2016-Sep-24 17:33N 55°18' E 011°03'9 9.1
2016-Sep-24 16:33N 55°09' E 010°60'2110.4
2016-Sep-24 14:33N 54°49' E 010°50'16 8.0
2016-Sep-24 12:33N 54°36' E 011°05'2110.4
2016-Sep-24 10:33N 54°28' E 011°38'1010.2
2016-Sep-24 09:33N 54°26' E 011°55'63 9.9
2016-Sep-24 03:11N 54°57' E 013°31'610.4
2016-Sep-24 02:33N 54°59' E 013°41'1010.3
2016-Sep-24 01:33N 55°02' E 013°58'1010.3
2016-Sep-24 00:33N 55°09' E 014°12'  
2016-Sep-18 15:34N 55°25' E 014°41'1111.3
2016-Sep-18 14:33N 55°17' E 014°28'119 9.9
2016-Sep-18 02:34N 54°34' E 011°14'1010.3
2016-Sep-18 01:34N 54°40' E 010°59'1010.0
2016-Sep-18 00:34N 54°49' E 010°52'2110.6
2016-Sep-17 22:34N 55°09' E 011°03'9710.3
2016-Sep-17 13:09N 56°42' E 011°49'710.9
2016-Sep-17 12:33N 56°48' E 011°50'2311.4
2016-Sep-17 10:32N 57°10' E 011°36'1111.3
2016-Sep-17 09:33N 57°21' E 011°30'1110.8
2016-Sep-17 08:33N 57°30' E 011°20'1111.0
2016-Sep-17 07:33N 57°37' E 011°05'27711.4
2016-Sep-16 07:12N 54°20' E 005°19'4813.1
2016-Sep-16 03:33N 53°35' E 004°50'4013.3
2016-Sep-16 00:33N 52°59' E 004°21'2412.1
2016-Sep-15 22:33N 52°39' E 003°59'1312.3
2016-Sep-15 21:28N 52°30' E 003°43'1112.0
2016-Sep-15 20:32N 52°22' E 003°30'2311.5
2016-Sep-15 18:33N 52°05' E 003°05'58 9.7
2016-Sep-15 12:33N 51°23' E 004°09'  

Dump ship's entire track history